sensor_id;sensor_type;location;lat;lon;timestamp;P1;durP1;ratioP1;P2;durP2;ratioP2
51758;SDS011;66684;47.568;18.734;2023-04-07T00:01:09;30.98;;;21.05;;
51758;SDS011;66684;47.568;18.734;2023-04-07T00:03:35;27.70;;;20.15;;
51758;SDS011;66684;47.568;18.734;2023-04-07T00:06:03;30.75;;;20.92;;
51758;SDS011;66684;47.568;18.734;2023-04-07T00:08:28;29.58;;;20.05;;
51758;SDS011;66684;47.568;18.734;2023-04-07T00:10:54;28.17;;;20.67;;
51758;SDS011;66684;47.568;18.734;2023-04-07T00:13:20;29.20;;;20.12;;
51758;SDS011;66684;47.568;18.734;2023-04-07T00:15:46;26.25;;;18.95;;
51758;SDS011;66684;47.568;18.734;2023-04-07T00:18:12;27.45;;;19.70;;
51758;SDS011;66684;47.568;18.734;2023-04-07T00:20:38;28.60;;;19.52;;
51758;SDS011;66684;47.568;18.734;2023-04-07T00:23:04;29.75;;;20.30;;
51758;SDS011;66684;47.568;18.734;2023-04-07T00:25:30;28.05;;;19.48;;
51758;SDS011;66684;47.568;18.734;2023-04-07T00:27:56;29.05;;;19.92;;
51758;SDS011;66684;47.568;18.734;2023-04-07T00:30:22;28.27;;;19.73;;
51758;SDS011;66684;47.568;18.734;2023-04-07T00:32:48;27.27;;;18.48;;
51758;SDS011;66684;47.568;18.734;2023-04-07T00:35:15;27.55;;;19.33;;
51758;SDS011;66684;47.568;18.734;2023-04-07T00:37:41;30.30;;;20.23;;
51758;SDS011;66684;47.568;18.734;2023-04-07T00:40:08;28.27;;;19.23;;
51758;SDS011;66684;47.568;18.734;2023-04-07T00:42:34;27.92;;;19.37;;
51758;SDS011;66684;47.568;18.734;2023-04-07T00:45:00;27.73;;;18.92;;
51758;SDS011;66684;47.568;18.734;2023-04-07T00:47:26;26.83;;;19.35;;
51758;SDS011;66684;47.568;18.734;2023-04-07T00:49:52;25.48;;;19.08;;
51758;SDS011;66684;47.568;18.734;2023-04-07T00:52:18;25.77;;;18.62;;
51758;SDS011;66684;47.568;18.734;2023-04-07T00:54:52;25.45;;;19.05;;
51758;SDS011;66684;47.568;18.734;2023-04-07T00:57:22;28.15;;;19.02;;
51758;SDS011;66684;47.568;18.734;2023-04-07T00:59:51;30.05;;;20.08;;
51758;SDS011;66684;47.568;18.734;2023-04-07T01:04:50;31.60;;;19.67;;
51758;SDS011;66684;47.568;18.734;2023-04-07T01:07:25;24.73;;;18.70;;
51758;SDS011;66684;47.568;18.734;2023-04-07T01:09:57;28.87;;;19.65;;
51758;SDS011;66684;47.568;18.734;2023-04-07T01:12:31;30.55;;;20.58;;
51758;SDS011;66684;47.568;18.734;2023-04-07T01:15:20;28.80;;;20.73;;
51758;SDS011;66684;47.568;18.734;2023-04-07T01:17:54;28.52;;;20.73;;
51758;SDS011;66684;47.568;18.734;2023-04-07T01:20:25;28.17;;;20.37;;
51758;SDS011;66684;47.568;18.734;2023-04-07T01:22:56;27.42;;;19.60;;
51758;SDS011;66684;47.568;18.734;2023-04-07T01:31:04;31.50;;;20.85;;
51758;SDS011;66684;47.568;18.734;2023-04-07T01:33:33;32.15;;;22.70;;
51758;SDS011;66684;47.568;18.734;2023-04-07T01:36:00;31.75;;;21.62;;
51758;SDS011;66684;47.568;18.734;2023-04-07T01:38:28;29.25;;;21.02;;
51758;SDS011;66684;47.568;18.734;2023-04-07T01:40:55;30.15;;;21.98;;
51758;SDS011;66684;47.568;18.734;2023-04-07T01:43:23;31.40;;;21.55;;
51758;SDS011;66684;47.568;18.734;2023-04-07T01:45:51;29.87;;;21.67;;
51758;SDS011;66684;47.568;18.734;2023-04-07T01:48:18;30.90;;;21.75;;
51758;SDS011;66684;47.568;18.734;2023-04-07T01:50:45;30.77;;;21.50;;
51758;SDS011;66684;47.568;18.734;2023-04-07T01:53:12;29.73;;;21.90;;
51758;SDS011;66684;47.568;18.734;2023-04-07T01:55:41;31.67;;;20.70;;
51758;SDS011;66684;47.568;18.734;2023-04-07T01:58:08;31.62;;;21.62;;
51758;SDS011;66684;47.568;18.734;2023-04-07T02:00:34;29.63;;;20.48;;
51758;SDS011;66684;47.568;18.734;2023-04-07T02:03:03;30.48;;;21.08;;
51758;SDS011;66684;47.568;18.734;2023-04-07T02:05:33;29.17;;;20.52;;
51758;SDS011;66684;47.568;18.734;2023-04-07T02:08:04;29.73;;;20.48;;
51758;SDS011;66684;47.568;18.734;2023-04-07T02:10:33;27.52;;;20.40;;
51758;SDS011;66684;47.568;18.734;2023-04-07T02:13:04;30.10;;;20.45;;
51758;SDS011;66684;47.568;18.734;2023-04-07T02:15:33;28.52;;;21.00;;
51758;SDS011;66684;47.568;18.734;2023-04-07T02:18:02;31.42;;;20.40;;
51758;SDS011;66684;47.568;18.734;2023-04-07T02:20:29;30.00;;;21.65;;
51758;SDS011;66684;47.568;18.734;2023-04-07T02:22:55;31.52;;;20.92;;
51758;SDS011;66684;47.568;18.734;2023-04-07T02:25:25;30.98;;;20.35;;
51758;SDS011;66684;47.568;18.734;2023-04-07T02:27:53;31.30;;;22.05;;
51758;SDS011;66684;47.568;18.734;2023-04-07T02:30:20;29.92;;;21.33;;
51758;SDS011;66684;47.568;18.734;2023-04-07T02:32:46;32.30;;;22.13;;
51758;SDS011;66684;47.568;18.734;2023-04-07T02:35:13;31.42;;;20.75;;
51758;SDS011;66684;47.568;18.734;2023-04-07T02:37:40;30.83;;;22.73;;
51758;SDS011;66684;47.568;18.734;2023-04-07T02:40:06;32.42;;;22.77;;
51758;SDS011;66684;47.568;18.734;2023-04-07T02:42:33;33.63;;;23.90;;
51758;SDS011;66684;47.568;18.734;2023-04-07T02:45:01;33.28;;;23.55;;
51758;SDS011;66684;47.568;18.734;2023-04-07T02:47:28;33.00;;;24.00;;
51758;SDS011;66684;47.568;18.734;2023-04-07T02:49:53;35.20;;;24.17;;
51758;SDS011;66684;47.568;18.734;2023-04-07T02:52:19;30.98;;;22.92;;
51758;SDS011;66684;47.568;18.734;2023-04-07T02:54:45;33.38;;;23.50;;
51758;SDS011;66684;47.568;18.734;2023-04-07T02:57:11;33.13;;;23.05;;
51758;SDS011;66684;47.568;18.734;2023-04-07T02:59:38;31.83;;;22.05;;
51758;SDS011;66684;47.568;18.734;2023-04-07T03:02:04;29.73;;;22.13;;
51758;SDS011;66684;47.568;18.734;2023-04-07T03:04:30;28.50;;;21.05;;
51758;SDS011;66684;47.568;18.734;2023-04-07T03:06:56;31.55;;;20.80;;
51758;SDS011;66684;47.568;18.734;2023-04-07T03:09:22;31.37;;;22.27;;
51758;SDS011;66684;47.568;18.734;2023-04-07T03:11:49;30.60;;;21.80;;
51758;SDS011;66684;47.568;18.734;2023-04-07T03:14:15;29.40;;;22.17;;
51758;SDS011;66684;47.568;18.734;2023-04-07T03:16:41;34.45;;;23.38;;
51758;SDS011;66684;47.568;18.734;2023-04-07T03:19:07;34.78;;;23.50;;
51758;SDS011;66684;47.568;18.734;2023-04-07T03:21:35;34.53;;;23.17;;
51758;SDS011;66684;47.568;18.734;2023-04-07T03:24:01;34.05;;;23.40;;
51758;SDS011;66684;47.568;18.734;2023-04-07T03:26:27;33.45;;;23.08;;
51758;SDS011;66684;47.568;18.734;2023-04-07T03:28:53;35.60;;;24.52;;
51758;SDS011;66684;47.568;18.734;2023-04-07T03:31:19;31.67;;;22.92;;
51758;SDS011;66684;47.568;18.734;2023-04-07T03:33:45;33.03;;;24.12;;
51758;SDS011;66684;47.568;18.734;2023-04-07T03:36:11;31.00;;;22.85;;
51758;SDS011;66684;47.568;18.734;2023-04-07T03:38:38;30.95;;;23.70;;
51758;SDS011;66684;47.568;18.734;2023-04-07T03:41:04;34.17;;;24.83;;
51758;SDS011;66684;47.568;18.734;2023-04-07T03:43:30;34.30;;;23.33;;
51758;SDS011;66684;47.568;18.734;2023-04-07T03:45:56;33.88;;;24.83;;
51758;SDS011;66684;47.568;18.734;2023-04-07T03:48:22;35.80;;;24.17;;
51758;SDS011;66684;47.568;18.734;2023-04-07T03:50:48;35.60;;;23.83;;
51758;SDS011;66684;47.568;18.734;2023-04-07T03:53:14;33.92;;;24.20;;
51758;SDS011;66684;47.568;18.734;2023-04-07T03:55:41;33.72;;;24.63;;
51758;SDS011;66684;47.568;18.734;2023-04-07T03:58:08;35.22;;;25.42;;
51758;SDS011;66684;47.568;18.734;2023-04-07T04:00:34;34.15;;;24.67;;
51758;SDS011;66684;47.568;18.734;2023-04-07T04:03:00;36.10;;;25.33;;
51758;SDS011;66684;47.568;18.734;2023-04-07T04:05:26;34.53;;;24.67;;
51758;SDS011;66684;47.568;18.734;2023-04-07T04:07:52;34.95;;;24.90;;
51758;SDS011;66684;47.568;18.734;2023-04-07T04:10:18;38.65;;;26.75;;
51758;SDS011;66684;47.568;18.734;2023-04-07T04:12:45;37.38;;;25.58;;
51758;SDS011;66684;47.568;18.734;2023-04-07T04:15:12;35.33;;;25.90;;
51758;SDS011;66684;47.568;18.734;2023-04-07T04:17:38;34.55;;;25.10;;
51758;SDS011;66684;47.568;18.734;2023-04-07T04:20:04;36.33;;;25.15;;
51758;SDS011;66684;47.568;18.734;2023-04-07T04:22:31;39.85;;;24.42;;
51758;SDS011;66684;47.568;18.734;2023-04-07T04:24:57;35.05;;;25.25;;
51758;SDS011;66684;47.568;18.734;2023-04-07T04:27:23;38.10;;;25.17;;
51758;SDS011;66684;47.568;18.734;2023-04-07T04:29:49;33.78;;;25.40;;
51758;SDS011;66684;47.568;18.734;2023-04-07T04:32:16;34.67;;;24.50;;
51758;SDS011;66684;47.568;18.734;2023-04-07T04:34:42;36.83;;;25.95;;
51758;SDS011;66684;47.568;18.734;2023-04-07T04:37:08;36.10;;;25.80;;
51758;SDS011;66684;47.568;18.734;2023-04-07T04:39:34;38.30;;;27.45;;
51758;SDS011;66684;47.568;18.734;2023-04-07T04:42:00;39.75;;;27.33;;
51758;SDS011;66684;47.568;18.734;2023-04-07T04:44:26;39.38;;;26.73;;
51758;SDS011;66684;47.568;18.734;2023-04-07T04:46:53;36.58;;;26.85;;
51758;SDS011;66684;47.568;18.734;2023-04-07T04:49:19;37.10;;;26.20;;
51758;SDS011;66684;47.568;18.734;2023-04-07T04:51:45;36.97;;;26.30;;
51758;SDS011;66684;47.568;18.734;2023-04-07T04:54:12;37.50;;;27.77;;
51758;SDS011;66684;47.568;18.734;2023-04-07T04:56:38;38.60;;;27.45;;
51758;SDS011;66684;47.568;18.734;2023-04-07T04:59:04;38.10;;;26.67;;
51758;SDS011;66684;47.568;18.734;2023-04-07T05:01:30;40.63;;;28.77;;
51758;SDS011;66684;47.568;18.734;2023-04-07T05:03:56;41.25;;;27.75;;
51758;SDS011;66684;47.568;18.734;2023-04-07T05:06:22;41.42;;;29.12;;
51758;SDS011;66684;47.568;18.734;2023-04-07T05:08:48;39.17;;;27.70;;
51758;SDS011;66684;47.568;18.734;2023-04-07T05:11:13;40.03;;;28.95;;
51758;SDS011;66684;47.568;18.734;2023-04-07T05:13:39;41.30;;;28.92;;
51758;SDS011;66684;47.568;18.734;2023-04-07T05:16:05;42.28;;;28.42;;
51758;SDS011;66684;47.568;18.734;2023-04-07T05:18:32;44.15;;;29.02;;
51758;SDS011;66684;47.568;18.734;2023-04-07T05:20:57;42.00;;;29.02;;
51758;SDS011;66684;47.568;18.734;2023-04-07T05:23:23;41.45;;;29.60;;
51758;SDS011;66684;47.568;18.734;2023-04-07T05:25:49;41.50;;;29.23;;
51758;SDS011;66684;47.568;18.734;2023-04-07T05:28:15;42.05;;;29.27;;
51758;SDS011;66684;47.568;18.734;2023-04-07T05:30:41;41.22;;;28.02;;
51758;SDS011;66684;47.568;18.734;2023-04-07T05:33:07;43.92;;;29.42;;
51758;SDS011;66684;47.568;18.734;2023-04-07T05:35:33;42.60;;;28.10;;
51758;SDS011;66684;47.568;18.734;2023-04-07T05:37:59;42.25;;;29.40;;
51758;SDS011;66684;47.568;18.734;2023-04-07T05:40:25;44.38;;;30.33;;
51758;SDS011;66684;47.568;18.734;2023-04-07T05:42:51;45.80;;;29.58;;
51758;SDS011;66684;47.568;18.734;2023-04-07T05:45:17;43.28;;;29.23;;
51758;SDS011;66684;47.568;18.734;2023-04-07T05:47:43;43.45;;;29.58;;
51758;SDS011;66684;47.568;18.734;2023-04-07T05:50:09;42.10;;;29.58;;
51758;SDS011;66684;47.568;18.734;2023-04-07T05:52:36;42.08;;;28.83;;
51758;SDS011;66684;47.568;18.734;2023-04-07T05:55:02;42.65;;;28.50;;
51758;SDS011;66684;47.568;18.734;2023-04-07T05:57:28;42.42;;;29.85;;
51758;SDS011;66684;47.568;18.734;2023-04-07T05:59:54;44.50;;;29.08;;
51758;SDS011;66684;47.568;18.734;2023-04-07T06:02:20;43.35;;;30.02;;
51758;SDS011;66684;47.568;18.734;2023-04-07T06:04:46;40.65;;;28.25;;
51758;SDS011;66684;47.568;18.734;2023-04-07T06:07:12;41.88;;;28.42;;
51758;SDS011;66684;47.568;18.734;2023-04-07T06:09:38;40.78;;;27.40;;
51758;SDS011;66684;47.568;18.734;2023-04-07T06:12:04;41.55;;;27.73;;
51758;SDS011;66684;47.568;18.734;2023-04-07T06:14:31;38.05;;;27.37;;
51758;SDS011;66684;47.568;18.734;2023-04-07T06:16:58;41.67;;;28.08;;
51758;SDS011;66684;47.568;18.734;2023-04-07T06:19:24;40.42;;;27.13;;
51758;SDS011;66684;47.568;18.734;2023-04-07T06:21:52;37.03;;;26.17;;
51758;SDS011;66684;47.568;18.734;2023-04-07T06:24:18;39.13;;;26.15;;
51758;SDS011;66684;47.568;18.734;2023-04-07T06:26:47;40.92;;;27.52;;
51758;SDS011;66684;47.568;18.734;2023-04-07T06:29:13;39.00;;;26.40;;
51758;SDS011;66684;47.568;18.734;2023-04-07T06:31:39;38.17;;;26.60;;
51758;SDS011;66684;47.568;18.734;2023-04-07T06:34:05;40.58;;;28.25;;
51758;SDS011;66684;47.568;18.734;2023-04-07T06:36:31;39.90;;;27.00;;
51758;SDS011;66684;47.568;18.734;2023-04-07T06:38:58;39.78;;;26.52;;
51758;SDS011;66684;47.568;18.734;2023-04-07T06:41:24;43.30;;;28.20;;
51758;SDS011;66684;47.568;18.734;2023-04-07T06:43:50;38.78;;;25.73;;
51758;SDS011;66684;47.568;18.734;2023-04-07T06:46:16;37.60;;;26.83;;
51758;SDS011;66684;47.568;18.734;2023-04-07T06:48:43;38.35;;;27.73;;
51758;SDS011;66684;47.568;18.734;2023-04-07T06:51:09;35.40;;;25.65;;
51758;SDS011;66684;47.568;18.734;2023-04-07T06:53:35;37.72;;;25.88;;
51758;SDS011;66684;47.568;18.734;2023-04-07T06:56:02;38.72;;;25.77;;
51758;SDS011;66684;47.568;18.734;2023-04-07T06:58:30;38.25;;;26.30;;
51758;SDS011;66684;47.568;18.734;2023-04-07T07:00:56;38.30;;;25.75;;
51758;SDS011;66684;47.568;18.734;2023-04-07T07:03:22;37.42;;;25.45;;
51758;SDS011;66684;47.568;18.734;2023-04-07T07:05:48;38.20;;;25.00;;
51758;SDS011;66684;47.568;18.734;2023-04-07T07:08:14;35.25;;;24.15;;
51758;SDS011;66684;47.568;18.734;2023-04-07T07:10:40;34.85;;;26.02;;
51758;SDS011;66684;47.568;18.734;2023-04-07T07:13:06;37.90;;;26.33;;
51758;SDS011;66684;47.568;18.734;2023-04-07T07:15:31;37.05;;;25.42;;
51758;SDS011;66684;47.568;18.734;2023-04-07T07:17:57;35.50;;;24.42;;
51758;SDS011;66684;47.568;18.734;2023-04-07T07:20:23;33.28;;;24.45;;
51758;SDS011;66684;47.568;18.734;2023-04-07T07:22:50;32.00;;;23.40;;
51758;SDS011;66684;47.568;18.734;2023-04-07T07:25:16;33.50;;;24.67;;
51758;SDS011;66684;47.568;18.734;2023-04-07T07:27:42;32.85;;;23.35;;
51758;SDS011;66684;47.568;18.734;2023-04-07T07:30:08;35.17;;;24.35;;
51758;SDS011;66684;47.568;18.734;2023-04-07T07:32:34;33.40;;;24.37;;
51758;SDS011;66684;47.568;18.734;2023-04-07T07:35:00;35.38;;;25.65;;
51758;SDS011;66684;47.568;18.734;2023-04-07T07:37:26;32.80;;;24.17;;
51758;SDS011;66684;47.568;18.734;2023-04-07T07:39:52;35.95;;;25.25;;
51758;SDS011;66684;47.568;18.734;2023-04-07T07:42:18;33.17;;;24.80;;
51758;SDS011;66684;47.568;18.734;2023-04-07T07:44:44;34.78;;;24.98;;
51758;SDS011;66684;47.568;18.734;2023-04-07T07:47:10;33.92;;;23.98;;
51758;SDS011;66684;47.568;18.734;2023-04-07T07:49:37;34.33;;;24.27;;
51758;SDS011;66684;47.568;18.734;2023-04-07T07:52:03;31.52;;;24.15;;
51758;SDS011;66684;47.568;18.734;2023-04-07T07:54:28;33.13;;;23.87;;
51758;SDS011;66684;47.568;18.734;2023-04-07T07:56:54;34.65;;;24.33;;
51758;SDS011;66684;47.568;18.734;2023-04-07T07:59:20;33.83;;;24.63;;
51758;SDS011;66684;47.568;18.734;2023-04-07T08:01:46;31.40;;;23.35;;
51758;SDS011;66684;47.568;18.734;2023-04-07T08:04:12;34.55;;;25.00;;
51758;SDS011;66684;47.568;18.734;2023-04-07T08:06:38;32.08;;;23.77;;
51758;SDS011;66684;47.568;18.734;2023-04-07T08:09:04;34.88;;;25.65;;
51758;SDS011;66684;47.568;18.734;2023-04-07T08:11:30;34.88;;;25.65;;
51758;SDS011;66684;47.568;18.734;2023-04-07T08:13:56;37.25;;;26.25;;
51758;SDS011;66684;47.568;18.734;2023-04-07T08:16:22;35.35;;;25.52;;
51758;SDS011;66684;47.568;18.734;2023-04-07T08:18:48;33.47;;;24.40;;
51758;SDS011;66684;47.568;18.734;2023-04-07T08:21:14;35.33;;;25.05;;
51758;SDS011;66684;47.568;18.734;2023-04-07T08:23:40;31.27;;;24.17;;
51758;SDS011;66684;47.568;18.734;2023-04-07T08:26:06;33.45;;;25.27;;
51758;SDS011;66684;47.568;18.734;2023-04-07T08:28:32;34.65;;;25.90;;
51758;SDS011;66684;47.568;18.734;2023-04-07T08:30:58;32.47;;;24.80;;
51758;SDS011;66684;47.568;18.734;2023-04-07T08:33:24;32.95;;;24.23;;
51758;SDS011;66684;47.568;18.734;2023-04-07T08:35:50;33.00;;;24.50;;
51758;SDS011;66684;47.568;18.734;2023-04-07T08:38:16;33.53;;;24.12;;
51758;SDS011;66684;47.568;18.734;2023-04-07T08:40:42;33.88;;;25.45;;
51758;SDS011;66684;47.568;18.734;2023-04-07T08:43:08;36.60;;;25.10;;
51758;SDS011;66684;47.568;18.734;2023-04-07T08:45:38;32.88;;;24.25;;
51758;SDS011;66684;47.568;18.734;2023-04-07T08:48:16;35.25;;;24.83;;
51758;SDS011;66684;47.568;18.734;2023-04-07T08:50:43;31.62;;;24.23;;
51758;SDS011;66684;47.568;18.734;2023-04-07T08:53:11;30.52;;;22.98;;
51758;SDS011;66684;47.568;18.734;2023-04-07T08:55:41;30.40;;;23.27;;
51758;SDS011;66684;47.568;18.734;2023-04-07T08:58:10;31.87;;;24.83;;
51758;SDS011;66684;47.568;18.734;2023-04-07T09:00:39;32.10;;;23.27;;
51758;SDS011;66684;47.568;18.734;2023-04-07T09:03:07;34.55;;;25.37;;
51758;SDS011;66684;47.568;18.734;2023-04-07T09:05:33;32.78;;;24.15;;
51758;SDS011;66684;47.568;18.734;2023-04-07T09:08:00;32.17;;;24.37;;
51758;SDS011;66684;47.568;18.734;2023-04-07T09:10:27;33.67;;;25.27;;
51758;SDS011;66684;47.568;18.734;2023-04-07T09:12:53;32.08;;;24.75;;
51758;SDS011;66684;47.568;18.734;2023-04-07T09:15:19;32.58;;;24.05;;
51758;SDS011;66684;47.568;18.734;2023-04-07T09:17:46;30.05;;;23.77;;
51758;SDS011;66684;47.568;18.734;2023-04-07T09:20:12;32.00;;;23.98;;
51758;SDS011;66684;47.568;18.734;2023-04-07T09:25:17;31.60;;;24.30;;
51758;SDS011;66684;47.568;18.734;2023-04-07T09:30:20;32.00;;;23.52;;
51758;SDS011;66684;47.568;18.734;2023-04-07T09:32:46;30.58;;;24.15;;
51758;SDS011;66684;47.568;18.734;2023-04-07T09:35:12;33.47;;;24.98;;
51758;SDS011;66684;47.568;18.734;2023-04-07T09:37:38;33.53;;;25.25;;
51758;SDS011;66684;47.568;18.734;2023-04-07T09:40:04;31.05;;;24.63;;
51758;SDS011;66684;47.568;18.734;2023-04-07T09:42:30;31.00;;;24.02;;
51758;SDS011;66684;47.568;18.734;2023-04-07T09:44:59;31.40;;;24.10;;
51758;SDS011;66684;47.568;18.734;2023-04-07T09:47:29;31.60;;;24.05;;
51758;SDS011;66684;47.568;18.734;2023-04-07T09:49:57;29.67;;;23.87;;
51758;SDS011;66684;47.568;18.734;2023-04-07T09:55:16;37.70;;;26.83;;
51758;SDS011;66684;47.568;18.734;2023-04-07T09:57:44;31.45;;;22.87;;
51758;SDS011;66684;47.568;18.734;2023-04-07T10:00:13;29.92;;;23.27;;
51758;SDS011;66684;47.568;18.734;2023-04-07T10:02:40;30.70;;;23.50;;
51758;SDS011;66684;47.568;18.734;2023-04-07T10:05:08;30.62;;;24.12;;
51758;SDS011;66684;47.568;18.734;2023-04-07T10:07:35;26.98;;;21.92;;
51758;SDS011;66684;47.568;18.734;2023-04-07T10:10:02;29.55;;;23.48;;
51758;SDS011;66684;47.568;18.734;2023-04-07T10:12:29;28.62;;;22.25;;
51758;SDS011;66684;47.568;18.734;2023-04-07T10:14:56;26.85;;;21.52;;
51758;SDS011;66684;47.568;18.734;2023-04-07T10:17:24;32.20;;;23.42;;
51758;SDS011;66684;47.568;18.734;2023-04-07T10:19:52;28.58;;;22.27;;
51758;SDS011;66684;47.568;18.734;2023-04-07T10:22:20;28.20;;;22.70;;
51758;SDS011;66684;47.568;18.734;2023-04-07T10:24:51;27.02;;;22.25;;
51758;SDS011;66684;47.568;18.734;2023-04-07T10:27:21;27.48;;;21.02;;
51758;SDS011;66684;47.568;18.734;2023-04-07T10:29:56;27.45;;;21.73;;
51758;SDS011;66684;47.568;18.734;2023-04-07T10:32:23;28.02;;;22.42;;
51758;SDS011;66684;47.568;18.734;2023-04-07T10:37:16;52.75;;;37.85;;
51758;SDS011;66684;47.568;18.734;2023-04-07T10:39:45;29.48;;;21.95;;
51758;SDS011;66684;47.568;18.734;2023-04-07T10:45:06;24.50;;;19.95;;
51758;SDS011;66684;47.568;18.734;2023-04-07T10:47:34;26.75;;;21.98;;
51758;SDS011;66684;47.568;18.734;2023-04-07T10:50:20;27.98;;;21.80;;
51758;SDS011;66684;47.568;18.734;2023-04-07T10:52:48;28.17;;;21.90;;
51758;SDS011;66684;47.568;18.734;2023-04-07T10:55:34;29.52;;;23.15;;
51758;SDS011;66684;47.568;18.734;2023-04-07T11:00:37;25.17;;;20.30;;
51758;SDS011;66684;47.568;18.734;2023-04-07T11:03:12;26.05;;;20.55;;
51758;SDS011;66684;47.568;18.734;2023-04-07T11:05:39;25.65;;;20.27;;
51758;SDS011;66684;47.568;18.734;2023-04-07T11:08:08;25.75;;;20.55;;
51758;SDS011;66684;47.568;18.734;2023-04-07T11:10:34;25.42;;;20.00;;
51758;SDS011;66684;47.568;18.734;2023-04-07T11:13:01;23.70;;;18.92;;
51758;SDS011;66684;47.568;18.734;2023-04-07T11:15:33;23.38;;;19.48;;
51758;SDS011;66684;47.568;18.734;2023-04-07T11:18:08;22.55;;;18.92;;
51758;SDS011;66684;47.568;18.734;2023-04-07T11:23:15;25.42;;;20.98;;
51758;SDS011;66684;47.568;18.734;2023-04-07T11:25:43;24.90;;;19.67;;
51758;SDS011;66684;47.568;18.734;2023-04-07T11:28:10;24.70;;;18.73;;
51758;SDS011;66684;47.568;18.734;2023-04-07T11:30:38;24.67;;;20.20;;
51758;SDS011;66684;47.568;18.734;2023-04-07T11:33:13;23.95;;;20.17;;
51758;SDS011;66684;47.568;18.734;2023-04-07T11:36:01;22.05;;;18.52;;
51758;SDS011;66684;47.568;18.734;2023-04-07T11:38:27;23.38;;;19.00;;
51758;SDS011;66684;47.568;18.734;2023-04-07T11:40:55;22.67;;;18.42;;
51758;SDS011;66684;47.568;18.734;2023-04-07T11:43:25;23.73;;;18.77;;
51758;SDS011;66684;47.568;18.734;2023-04-07T11:46:08;22.55;;;17.37;;
51758;SDS011;66684;47.568;18.734;2023-04-07T11:48:37;21.40;;;17.27;;
51758;SDS011;66684;47.568;18.734;2023-04-07T11:51:04;23.00;;;18.73;;
51758;SDS011;66684;47.568;18.734;2023-04-07T11:53:32;22.23;;;18.00;;
51758;SDS011;66684;47.568;18.734;2023-04-07T11:58:30;20.92;;;16.35;;
51758;SDS011;66684;47.568;18.734;2023-04-07T12:00:57;22.90;;;17.83;;
51758;SDS011;66684;47.568;18.734;2023-04-07T12:03:27;21.92;;;17.33;;
51758;SDS011;66684;47.568;18.734;2023-04-07T12:05:54;22.10;;;17.67;;
51758;SDS011;66684;47.568;18.734;2023-04-07T12:08:20;24.65;;;18.20;;
51758;SDS011;66684;47.568;18.734;2023-04-07T12:10:46;24.87;;;18.42;;
51758;SDS011;66684;47.568;18.734;2023-04-07T12:13:12;25.23;;;18.90;;
51758;SDS011;66684;47.568;18.734;2023-04-07T12:15:39;26.83;;;20.17;;
51758;SDS011;66684;47.568;18.734;2023-04-07T12:18:05;26.50;;;21.08;;
51758;SDS011;66684;47.568;18.734;2023-04-07T12:20:31;26.87;;;20.52;;
51758;SDS011;66684;47.568;18.734;2023-04-07T12:22:57;24.95;;;20.08;;
51758;SDS011;66684;47.568;18.734;2023-04-07T12:25:25;27.35;;;20.48;;
51758;SDS011;66684;47.568;18.734;2023-04-07T12:27:51;26.85;;;21.30;;
51758;SDS011;66684;47.568;18.734;2023-04-07T12:30:17;25.75;;;20.12;;
51758;SDS011;66684;47.568;18.734;2023-04-07T12:32:43;28.10;;;21.98;;
51758;SDS011;66684;47.568;18.734;2023-04-07T12:35:10;26.83;;;20.58;;
51758;SDS011;66684;47.568;18.734;2023-04-07T12:37:36;26.95;;;21.30;;
51758;SDS011;66684;47.568;18.734;2023-04-07T12:40:02;28.00;;;22.62;;
51758;SDS011;66684;47.568;18.734;2023-04-07T12:42:28;29.17;;;21.62;;
51758;SDS011;66684;47.568;18.734;2023-04-07T12:44:54;31.48;;;23.65;;
51758;SDS011;66684;47.568;18.734;2023-04-07T12:47:20;31.35;;;24.15;;
51758;SDS011;66684;47.568;18.734;2023-04-07T12:49:46;33.50;;;27.58;;
51758;SDS011;66684;47.568;18.734;2023-04-07T12:52:12;38.45;;;28.67;;
51758;SDS011;66684;47.568;18.734;2023-04-07T12:54:38;34.70;;;26.73;;
51758;SDS011;66684;47.568;18.734;2023-04-07T12:57:04;38.80;;;26.87;;
51758;SDS011;66684;47.568;18.734;2023-04-07T12:59:30;33.88;;;25.55;;
51758;SDS011;66684;47.568;18.734;2023-04-07T13:01:56;30.42;;;24.12;;
51758;SDS011;66684;47.568;18.734;2023-04-07T13:04:22;27.67;;;22.83;;
51758;SDS011;66684;47.568;18.734;2023-04-07T13:06:49;30.62;;;23.90;;
51758;SDS011;66684;47.568;18.734;2023-04-07T13:09:15;29.30;;;23.42;;
51758;SDS011;66684;47.568;18.734;2023-04-07T13:11:41;28.00;;;21.87;;
51758;SDS011;66684;47.568;18.734;2023-04-07T13:14:07;28.52;;;23.33;;
51758;SDS011;66684;47.568;18.734;2023-04-07T13:16:33;28.58;;;21.95;;
51758;SDS011;66684;47.568;18.734;2023-04-07T13:18:59;30.30;;;23.62;;
51758;SDS011;66684;47.568;18.734;2023-04-07T13:21:24;28.67;;;22.98;;
51758;SDS011;66684;47.568;18.734;2023-04-07T13:23:52;29.63;;;22.45;;
51758;SDS011;66684;47.568;18.734;2023-04-07T13:26:18;31.05;;;22.52;;
51758;SDS011;66684;47.568;18.734;2023-04-07T13:28:43;33.10;;;23.65;;
51758;SDS011;66684;47.568;18.734;2023-04-07T13:31:10;29.17;;;22.85;;
51758;SDS011;66684;47.568;18.734;2023-04-07T13:33:40;29.80;;;22.80;;
51758;SDS011;66684;47.568;18.734;2023-04-07T13:36:06;31.17;;;22.50;;
51758;SDS011;66684;47.568;18.734;2023-04-07T13:38:32;29.95;;;22.87;;
51758;SDS011;66684;47.568;18.734;2023-04-07T13:40:58;28.98;;;20.45;;
51758;SDS011;66684;47.568;18.734;2023-04-07T13:43:24;27.17;;;21.08;;
51758;SDS011;66684;47.568;18.734;2023-04-07T13:45:50;28.60;;;23.52;;
51758;SDS011;66684;47.568;18.734;2023-04-07T13:48:16;31.87;;;25.30;;
51758;SDS011;66684;47.568;18.734;2023-04-07T13:50:42;30.35;;;22.42;;
51758;SDS011;66684;47.568;18.734;2023-04-07T13:53:10;27.55;;;21.58;;
51758;SDS011;66684;47.568;18.734;2023-04-07T13:55:36;28.17;;;21.75;;
51758;SDS011;66684;47.568;18.734;2023-04-07T13:58:01;29.67;;;23.58;;
51758;SDS011;66684;47.568;18.734;2023-04-07T14:00:27;28.55;;;22.00;;
51758;SDS011;66684;47.568;18.734;2023-04-07T14:02:53;30.35;;;21.67;;
51758;SDS011;66684;47.568;18.734;2023-04-07T14:05:20;28.85;;;21.70;;
51758;SDS011;66684;47.568;18.734;2023-04-07T14:07:46;37.45;;;21.00;;
51758;SDS011;66684;47.568;18.734;2023-04-07T14:10:12;28.40;;;22.87;;
51758;SDS011;66684;47.568;18.734;2023-04-07T14:12:38;26.45;;;21.27;;
51758;SDS011;66684;47.568;18.734;2023-04-07T14:15:04;27.98;;;21.17;;
51758;SDS011;66684;47.568;18.734;2023-04-07T14:17:30;30.25;;;21.33;;
51758;SDS011;66684;47.568;18.734;2023-04-07T14:19:56;28.60;;;21.48;;
51758;SDS011;66684;47.568;18.734;2023-04-07T14:22:22;29.10;;;21.80;;
51758;SDS011;66684;47.568;18.734;2023-04-07T14:24:48;28.40;;;20.85;;
51758;SDS011;66684;47.568;18.734;2023-04-07T14:27:14;29.65;;;22.02;;
51758;SDS011;66684;47.568;18.734;2023-04-07T14:29:48;28.95;;;21.67;;
51758;SDS011;66684;47.568;18.734;2023-04-07T14:32:14;28.80;;;22.50;;
51758;SDS011;66684;47.568;18.734;2023-04-07T14:34:40;29.17;;;22.90;;
51758;SDS011;66684;47.568;18.734;2023-04-07T14:37:06;32.05;;;23.10;;